createdAt,value
2018-06-02T00:00:59.348Z,82.85
2018-06-02T00:01:59.447Z,82.85
2018-06-02T00:02:59.552Z,82.94
2018-06-02T00:03:59.653Z,82.94
2018-06-02T00:04:59.757Z,82.85
2018-06-02T00:05:59.859Z,82.85
2018-06-02T00:06:59.964Z,83.33
2018-06-02T00:08:00.065Z,83.52
2018-06-02T00:09:00.301Z,83.33
2018-06-02T00:10:00.287Z,83.86
2018-06-02T00:11:00.408Z,83.77
2018-06-02T00:12:00.478Z,84.06
2018-06-02T00:13:00.583Z,83.77
2018-06-02T00:14:00.677Z,83.91
2018-06-02T00:15:00.778Z,83.62
2018-06-02T00:16:00.878Z,83.62
2018-06-02T00:17:00.980Z,83.33
2018-06-02T00:18:01.078Z,83.23
2018-06-02T00:19:01.180Z,83.33
2018-06-02T00:20:01.280Z,83.62
2018-06-02T00:21:01.384Z,83.42
2018-06-02T00:22:01.482Z,83.33
2018-06-02T00:23:01.584Z,83.58
2018-06-02T00:24:01.691Z,84.63
2018-06-02T00:25:01.792Z,85.31
2018-06-02T00:26:01.897Z,85.69
2018-06-02T00:27:01.987Z,85.50
2018-06-02T00:28:02.094Z,86.80
2018-06-02T00:29:02.205Z,86.90
2018-06-02T00:30:02.301Z,86.99
2018-06-02T00:31:02.407Z,87.09
2018-06-02T00:32:02.511Z,86.71
2018-06-02T00:33:02.610Z,87.48
2018-06-02T00:34:02.698Z,87.19
2018-06-02T00:35:02.888Z,86.99
2018-06-02T00:36:03.005Z,86.99
2018-06-02T00:37:03.182Z,86.71
2018-06-02T00:38:03.193Z,86.85
2018-06-02T00:39:03.285Z,86.22
2018-06-02T00:40:03.426Z,87.04
2018-06-02T00:41:03.543Z,87.13
2018-06-02T00:42:03.683Z,86.85
2018-06-02T00:43:03.668Z,86.42
2018-06-02T00:44:03.765Z,87.04
2018-06-02T00:45:03.897Z,85.98
2018-06-02T00:46:03.929Z,87.04
2018-06-02T00:47:04.381Z,86.75
2018-06-02T00:48:04.148Z,86.56
2018-06-02T00:49:04.255Z,86.46
2018-06-02T00:50:04.447Z,86.27
2018-06-02T00:51:04.419Z,86.46
2018-06-02T00:52:04.527Z,86.08
2018-06-02T00:53:04.741Z,86.65
2018-06-02T00:54:04.734Z,86.18
2018-06-02T00:55:04.862Z,86.75
2018-06-02T00:56:04.881Z,86.18
2018-06-02T00:57:05.084Z,85.88
2018-06-02T00:58:05.051Z,85.98
2018-06-02T00:59:05.202Z,85.74
2018-06-02T01:00:05.317Z,84.92
2018-06-02T01:01:05.421Z,85.40
2018-06-02T01:02:05.529Z,85.31
2018-06-02T01:03:05.667Z,84.97
2018-06-02T01:04:05.764Z,84.97
2018-06-02T01:05:05.970Z,84.87
2018-06-02T01:06:06.414Z,84.58
2018-06-02T01:07:06.092Z,84.87
2018-06-02T01:08:06.237Z,84.48
2018-06-02T01:09:06.339Z,84.97
2018-06-02T01:10:06.431Z,84.87
2018-06-02T01:11:06.729Z,84.97
2018-06-02T01:12:06.673Z,85.16
2018-06-02T01:13:06.736Z,84.77
2018-06-02T01:14:06.826Z,84.97
2018-06-02T01:15:07.000Z,84.77
2018-06-02T01:16:06.984Z,85.16
2018-06-02T01:17:07.113Z,84.97
2018-06-02T01:18:07.239Z,84.77
2018-06-02T01:19:07.341Z,85.06
2018-06-02T01:20:07.442Z,85.06
2018-06-02T01:21:07.542Z,84.77
2018-06-02T01:22:07.725Z,84.77
2018-06-02T01:23:07.817Z,84.10
2018-06-02T01:24:07.787Z,84.67
2018-06-02T01:25:07.916Z,84.44
2018-06-02T01:26:08.015Z,85.16
2018-06-02T01:27:08.117Z,84.92
2018-06-02T01:28:08.394Z,85.25
2018-06-02T01:29:08.374Z,85.21
2018-06-02T01:30:08.472Z,85.78
2018-06-02T01:31:08.575Z,85.98
2018-06-02T01:32:08.718Z,86.18
2018-06-02T01:33:08.823Z,85.69
2018-06-02T01:34:08.919Z,85.50
2018-06-02T01:35:09.027Z,85.21
2018-06-02T01:36:09.131Z,85.31
2018-06-02T01:37:09.241Z,85.35
2018-06-02T01:38:09.415Z,85.31
2018-06-02T01:39:09.536Z,85.54
2018-06-02T01:40:09.676Z,85.35
2018-06-02T01:41:09.839Z,85.64
2018-06-02T01:42:10.170Z,85.06
2018-06-02T01:43:10.178Z,84.67
2018-06-02T01:44:10.224Z,84.83
2018-06-02T01:45:10.261Z,85.02
2018-06-02T01:46:10.306Z,85.35
2018-06-02T01:47:10.411Z,84.63
2018-06-02T01:48:10.579Z,85.31
2018-06-02T01:49:10.668Z,85.16
2018-06-02T01:50:10.920Z,84.67
2018-06-02T01:51:10.788Z,84.67
2018-06-02T01:52:10.928Z,84.92
2018-06-02T01:53:11.056Z,85.06
2018-06-02T01:54:11.011Z,84.48
2018-06-02T01:55:11.156Z,84.67
2018-06-02T01:56:11.335Z,84.67
2018-06-02T01:57:11.325Z,84.54
2018-06-02T01:58:11.571Z,84.92
2018-06-02T01:59:11.947Z,84.92
2018-06-02T02:00:11.688Z,86.08
2018-06-02T02:01:11.858Z,85.88
2018-06-02T02:02:11.995Z,85.50
2018-06-02T02:03:12.016Z,85.65
2018-06-02T02:04:12.100Z,86.61
2018-06-02T02:05:12.425Z,86.90
2018-06-02T02:06:12.525Z,86.52
2018-06-02T02:07:12.367Z,86.80
2018-06-02T02:08:12.887Z,87.09
2018-06-02T02:09:12.753Z,87.09
2018-06-02T02:10:12.845Z,87.09
2018-06-02T02:11:13.001Z,86.99
2018-06-02T02:12:12.925Z,86.90
2018-06-02T02:13:13.176Z,86.71
2018-06-02T02:14:13.090Z,86.52
2018-06-02T02:15:13.247Z,86.13
2018-06-02T02:16:13.508Z,86.71
2018-06-02T02:17:13.552Z,86.71
2018-06-02T02:18:13.613Z,86.08
2018-06-02T02:19:14.295Z,86.18
2018-06-02T02:20:13.949Z,86.18
2018-06-02T02:21:13.891Z,85.69
2018-06-02T02:22:14.409Z,85.31
2018-06-02T02:23:14.008Z,85.11
2018-06-02T02:24:14.455Z,85.50
2018-06-02T02:25:14.040Z,84.73
2018-06-02T02:26:14.175Z,85.21
2018-06-02T02:27:14.299Z,84.63
2018-06-02T02:28:14.504Z,84.54
2018-06-02T02:29:14.562Z,85.06
2018-06-02T02:30:14.610Z,84.97
2018-06-02T02:31:14.619Z,84.77
2018-06-02T02:32:14.756Z,84.19
2018-06-02T02:33:14.952Z,83.81
2018-06-02T02:34:15.405Z,83.91
2018-06-02T02:35:15.226Z,84.29
2018-06-02T02:36:15.729Z,84.10
2018-06-02T02:37:15.409Z,84.10
2018-06-02T02:38:15.366Z,84.10
2018-06-02T02:39:15.638Z,84.10
2018-06-02T02:40:15.614Z,84.00
2018-06-02T02:41:15.661Z,83.81
2018-06-02T02:42:15.800Z,83.42
2018-06-02T02:43:15.719Z,83.42
2018-06-02T02:44:15.986Z,83.42
2018-06-02T02:45:15.875Z,83.62
2018-06-02T02:46:15.986Z,84.00
2018-06-02T02:47:16.078Z,83.91
2018-06-02T02:48:16.273Z,83.91
2018-06-02T02:49:16.269Z,84.00
2018-06-02T02:50:16.878Z,84.63
2018-06-02T02:51:16.616Z,84.63
2018-06-02T02:52:16.588Z,84.83
2018-06-02T02:53:16.689Z,84.83
2018-06-02T02:54:16.883Z,84.73
2018-06-02T02:55:16.871Z,85.11
2018-06-02T02:56:16.981Z,85.50
2018-06-02T02:57:17.110Z,87.09
2018-06-02T02:58:17.204Z,87.09
2018-06-02T02:59:17.358Z,87.48
2018-06-02T03:00:17.468Z,87.38
2018-06-02T03:01:17.600Z,87.09
2018-06-02T03:02:17.705Z,86.90
2018-06-02T03:03:17.805Z,87.48
2018-06-02T03:04:17.908Z,86.90
2018-06-02T03:05:18.323Z,86.04
2018-06-02T03:06:18.335Z,86.80
2018-06-02T03:07:18.593Z,86.99
2018-06-02T03:08:18.314Z,87.09
2018-06-02T03:09:18.472Z,86.56
2018-06-02T03:10:18.569Z,86.56
2018-06-02T03:11:18.767Z,85.98
2018-06-02T03:12:18.787Z,85.84
2018-06-02T03:13:19.086Z,86.46
2018-06-02T03:14:18.941Z,86.18
2018-06-02T03:15:19.105Z,86.46
2018-06-02T03:16:19.160Z,86.46
2018-06-02T03:17:19.309Z,86.08
2018-06-02T03:18:19.317Z,86.36
2018-06-02T03:19:19.453Z,86.22
2018-06-02T03:20:19.804Z,86.52
2018-06-02T03:21:19.599Z,86.99
2018-06-02T03:22:19.722Z,86.94
2018-06-02T03:23:19.926Z,86.08
2018-06-02T03:24:19.890Z,86.32
2018-06-02T03:25:20.158Z,86.71
2018-06-02T03:26:20.211Z,86.52
2018-06-02T03:27:20.202Z,86.52
2018-06-02T03:28:20.301Z,86.18
2018-06-02T03:29:20.521Z,86.27
2018-06-02T03:30:20.556Z,86.08
2018-06-02T03:31:20.766Z,85.50
2018-06-02T03:32:20.798Z,85.60
2018-06-02T03:33:21.095Z,85.88
2018-06-02T03:34:20.981Z,85.40
2018-06-02T03:35:21.100Z,85.40
2018-06-02T03:36:21.205Z,85.40
2018-06-02T03:37:21.308Z,86.04
2018-06-02T03:38:21.412Z,86.13
2018-06-02T03:39:21.550Z,86.18
2018-06-02T03:40:21.571Z,86.46
2018-06-02T03:41:21.664Z,86.08
2018-06-02T03:42:21.764Z,85.98
2018-06-02T03:43:21.868Z,85.69
2018-06-02T03:44:21.972Z,86.18
2018-06-02T03:45:22.069Z,86.18
2018-06-02T03:46:22.173Z,85.98
2018-06-02T03:47:22.277Z,85.98
2018-06-02T03:48:22.378Z,85.60
2018-06-02T03:49:22.477Z,85.69
2018-06-02T03:50:22.578Z,85.50
2018-06-02T03:51:22.681Z,85.44
2018-06-02T03:52:22.780Z,84.77
2018-06-02T03:53:22.880Z,85.11
2018-06-02T03:54:22.987Z,85.78
2018-06-02T03:55:23.088Z,85.88
2018-06-02T03:56:23.189Z,86.18
2018-06-02T03:57:23.291Z,86.18
2018-06-02T03:58:23.395Z,86.27
2018-06-02T03:59:23.496Z,86.36
2018-06-02T04:00:23.599Z,86.56
2018-06-02T04:01:23.701Z,86.46
2018-06-02T04:02:23.806Z,86.56
2018-06-02T04:03:23.920Z,86.36
2018-06-02T04:04:24.018Z,85.60
2018-06-02T04:05:24.124Z,86.18
2018-06-02T04:06:24.232Z,86.75
2018-06-02T04:07:24.330Z,86.56
2018-06-02T04:08:24.429Z,86.65
2018-06-02T04:09:24.528Z,86.65
2018-06-02T04:10:24.629Z,86.36
2018-06-02T04:11:24.731Z,86.27
2018-06-02T04:12:24.832Z,86.52
2018-06-02T04:13:24.934Z,86.75
2018-06-02T04:14:25.033Z,86.42
2018-06-02T04:15:25.136Z,86.65
2018-06-02T04:16:25.237Z,86.46
2018-06-02T04:17:25.339Z,86.08
2018-06-02T04:18:25.441Z,85.69
2018-06-02T04:19:25.543Z,85.98
2018-06-02T04:20:25.644Z,85.60
2018-06-02T04:21:25.746Z,85.88
2018-06-02T04:22:25.847Z,85.78
2018-06-02T04:23:25.948Z,85.88
2018-06-02T04:24:26.051Z,85.88
2018-06-02T04:25:26.152Z,85.88
2018-06-02T04:26:26.256Z,85.98
2018-06-02T04:27:26.355Z,85.98
2018-06-02T04:28:26.455Z,86.46
2018-06-02T04:29:26.561Z,86.46
2018-06-02T04:30:26.662Z,86.18
2018-06-02T04:31:26.764Z,86.56
2018-06-02T04:32:26.864Z,86.75
2018-06-02T04:33:26.969Z,86.85
2018-06-02T04:34:27.068Z,86.27
2018-06-02T04:35:27.172Z,86.46
2018-06-02T04:36:27.344Z,85.88
2018-06-02T04:37:27.340Z,85.98
2018-06-02T04:38:27.442Z,86.71
2018-06-02T04:39:27.550Z,86.65
2018-06-02T04:40:27.644Z,87.13
2018-06-02T04:41:27.750Z,86.22
2018-06-02T04:42:27.853Z,87.04
2018-06-02T04:43:27.959Z,86.56
2018-06-02T04:44:28.061Z,86.56
2018-06-02T04:45:28.162Z,86.36
2018-06-02T04:46:28.261Z,86.65
2018-06-02T04:47:28.361Z,86.94
2018-06-02T04:48:28.464Z,85.94
2018-06-02T04:49:28.564Z,86.75
2018-06-02T04:50:28.668Z,86.18
2018-06-02T04:51:28.767Z,86.94
2018-06-02T04:52:28.869Z,86.56
2018-06-02T04:53:28.972Z,86.46
2018-06-02T04:54:29.072Z,86.36
2018-06-02T04:55:29.173Z,85.78
2018-06-02T04:56:29.274Z,85.98
2018-06-02T04:57:29.379Z,85.69
2018-06-02T04:58:29.479Z,86.46
2018-06-02T04:59:29.581Z,86.46
2018-06-02T05:00:29.681Z,86.71
2018-06-02T05:01:29.785Z,86.36
2018-06-02T05:02:29.891Z,86.94
2018-06-02T05:03:29.994Z,86.65
2018-06-02T05:04:30.148Z,86.46
2018-06-02T05:05:30.217Z,86.27
2018-06-02T05:06:30.308Z,86.75
2018-06-02T05:07:30.409Z,86.27
2018-06-02T05:08:30.509Z,86.08
2018-06-02T05:09:30.612Z,85.98
2018-06-02T05:10:30.717Z,86.02
2018-06-02T05:11:30.815Z,85.35
2018-06-02T05:12:30.914Z,84.87
2018-06-02T05:13:31.018Z,84.77
2018-06-02T05:14:31.119Z,84.19
2018-06-02T05:15:31.239Z,84.00
2018-06-02T05:16:31.317Z,84.19
2018-06-02T05:17:31.417Z,84.39
2018-06-02T05:18:31.521Z,84.10
2018-06-02T05:19:31.618Z,84.87
2018-06-02T05:20:31.723Z,84.44
2018-06-02T05:21:31.824Z,84.97
2018-06-02T05:22:31.926Z,84.48
2018-06-02T05:23:32.029Z,84.19
2018-06-02T05:24:32.135Z,84.87
2018-06-02T05:25:32.240Z,84.97
2018-06-02T05:26:32.342Z,84.97
2018-06-02T05:27:32.441Z,85.06
2018-06-02T05:28:32.545Z,84.67
2018-06-02T05:29:32.643Z,84.58
2018-06-02T05:30:32.750Z,84.77
2018-06-02T05:31:32.851Z,84.87
2018-06-02T05:32:32.954Z,84.58
2018-06-02T05:33:33.043Z,84.58
2018-06-02T05:34:33.139Z,84.77
2018-06-02T05:35:33.245Z,84.67
2018-06-02T05:36:33.349Z,84.58
2018-06-02T05:37:33.448Z,84.67
2018-06-02T05:38:33.554Z,84.00
2018-06-02T05:39:33.644Z,84.19
2018-06-02T05:40:33.797Z,83.91
2018-06-02T05:41:33.879Z,84.00
2018-06-02T05:42:33.987Z,84.10
2018-06-02T05:43:34.133Z,83.81
2018-06-02T05:44:34.254Z,84.77
2018-06-02T05:45:34.404Z,84.77
2018-06-02T05:46:34.584Z,85.35
2018-06-02T05:47:34.564Z,85.54
2018-06-02T05:48:34.675Z,84.87
2018-06-02T05:49:34.799Z,85.25
2018-06-02T05:50:34.904Z,85.16
2018-06-02T05:51:35.001Z,85.44
2018-06-02T05:52:35.176Z,85.54
2018-06-02T05:53:35.226Z,86.26
2018-06-02T05:54:35.522Z,85.83
2018-06-02T05:55:35.733Z,86.12
2018-06-02T05:56:35.726Z,86.51
2018-06-02T05:57:35.617Z,86.51
2018-06-02T05:58:35.738Z,86.79
2018-06-02T05:59:35.797Z,86.89
2018-06-02T06:00:35.891Z,86.12
2018-06-02T06:01:35.989Z,86.79
2018-06-02T06:02:36.192Z,86.51
2018-06-02T06:03:36.251Z,86.89
2018-06-02T06:04:36.313Z,86.99
2018-06-02T06:05:36.415Z,86.99
2018-06-02T06:06:36.399Z,87.46
2018-06-02T06:07:36.557Z,88.14
2018-06-02T06:08:36.548Z,86.89
2018-06-02T06:09:36.671Z,88.00
2018-06-02T06:10:36.783Z,88.57
2018-06-02T06:11:36.942Z,88.96
2018-06-02T06:12:37.174Z,89.64
2018-06-02T06:13:37.196Z,89.92
2018-06-02T06:14:37.366Z,89.83
2018-06-02T06:15:37.385Z,89.29
2018-06-02T06:16:37.492Z,89.35
2018-06-02T06:17:37.592Z,88.67
2018-06-02T06:18:37.693Z,88.39
2018-06-02T06:19:37.885Z,89.25
2018-06-02T06:20:37.910Z,89.35
2018-06-02T06:21:38.008Z,88.39
2018-06-02T06:22:38.107Z,88.39
2018-06-02T06:23:38.211Z,88.39
2018-06-02T06:24:38.310Z,88.77
2018-06-02T06:25:38.411Z,89.35
2018-06-02T06:26:38.514Z,89.06
2018-06-02T06:27:38.612Z,89.06
2018-06-02T06:28:38.718Z,89.44
2018-06-02T06:29:38.817Z,88.63
2018-06-02T06:30:38.918Z,88.77
2018-06-02T06:31:39.039Z,88.39
2018-06-02T06:32:39.142Z,88.48
2018-06-02T06:33:39.243Z,89.01
2018-06-02T06:34:39.364Z,89.30
2018-06-02T06:35:40.463Z,89.21
2018-06-02T06:36:39.963Z,89.50
2018-06-02T06:37:39.657Z,89.69
2018-06-02T06:38:39.784Z,89.78
2018-06-02T06:39:39.995Z,90.75
2018-06-02T06:40:39.913Z,90.17
2018-06-02T06:41:40.161Z,90.26
2018-06-02T06:42:40.150Z,90.26
2018-06-02T06:43:40.240Z,90.41
2018-06-02T06:44:40.525Z,88.96
2018-06-02T06:45:40.473Z,89.06
2018-06-02T06:46:40.591Z,87.71
2018-06-02T06:47:40.700Z,88.24
2018-06-02T06:48:40.913Z,88.48
2018-06-02T06:49:40.903Z,88.48
2018-06-02T06:50:41.023Z,88.48
2018-06-02T06:51:41.133Z,89.15
2018-06-02T06:52:41.413Z,88.39
2018-06-02T06:53:41.303Z,88.29
2018-06-02T06:54:41.473Z,88.19
2018-06-02T06:55:41.464Z,88.48
2018-06-02T06:56:41.678Z,86.99
2018-06-02T06:57:41.865Z,87.71
2018-06-02T06:58:41.795Z,87.85
2018-06-02T06:59:41.901Z,87.85
2018-06-02T07:00:42.030Z,87.04
2018-06-02T07:01:42.129Z,87.08
2018-06-02T07:02:42.603Z,87.13
2018-06-02T07:03:42.332Z,87.08
2018-06-02T07:04:42.421Z,86.60
2018-06-02T07:05:42.511Z,87.08
2018-06-02T07:06:42.653Z,87.27
2018-06-02T07:07:43.028Z,85.83
2018-06-02T07:08:42.784Z,85.83
2018-06-02T07:09:42.890Z,85.54
2018-06-02T07:10:43.131Z,85.78
2018-06-02T07:11:43.175Z,86.07
2018-06-02T07:12:43.268Z,85.58
2018-06-02T07:13:43.347Z,85.58
2018-06-02T07:14:43.444Z,85.97
2018-06-02T07:15:43.756Z,85.39
2018-06-02T07:16:43.605Z,83.91
2018-06-02T07:17:43.899Z,84.62
2018-06-02T07:18:43.913Z,84.81
2018-06-02T07:19:43.900Z,84.53
2018-06-02T07:20:43.992Z,84.62
2018-06-02T07:21:44.145Z,84.95
2018-06-02T07:22:44.131Z,84.18
2018-06-02T07:23:44.226Z,83.51
2018-06-02T07:24:44.324Z,82.02
2018-06-02T07:25:44.418Z,82.41
2018-06-02T07:26:44.517Z,83.18
2018-06-02T07:27:44.646Z,83.03
2018-06-02T07:28:44.830Z,82.93
2018-06-02T07:29:44.898Z,83.03
2018-06-02T07:30:46.284Z,82.74
2018-06-02T07:31:45.084Z,82.35
2018-06-02T07:32:45.645Z,81.68
2018-06-02T07:33:46.060Z,81.68
2018-06-02T07:34:45.389Z,81.48
2018-06-02T07:35:45.492Z,81.39
2018-06-02T07:36:45.575Z,81.43
2018-06-02T07:37:45.558Z,81.52
2018-06-02T07:38:45.664Z,81.24
2018-06-02T07:39:46.264Z,80.08
2018-06-02T07:40:45.995Z,80.08
2018-06-02T07:41:46.115Z,80.18
2018-06-02T07:42:46.281Z,81.52
2018-06-02T07:43:46.171Z,81.52
2018-06-02T07:44:46.294Z,80.94
2018-06-02T07:45:46.412Z,80.66
2018-06-02T07:46:46.531Z,79.21
2018-06-02T07:47:46.664Z,79.93
2018-06-02T07:48:46.784Z,79.16
2018-06-02T07:49:48.595Z,79.44
2018-06-02T07:50:47.089Z,79.25
2018-06-02T07:51:47.058Z,79.16
2018-06-02T07:52:47.244Z,77.90
2018-06-02T07:53:47.381Z,78.86
2018-06-02T07:54:47.480Z,79.00
2018-06-02T07:55:49.547Z,77.55
2018-06-02T07:56:47.617Z,77.07
2018-06-02T07:57:47.712Z,76.68
2018-06-02T07:58:47.942Z,75.82
2018-06-02T07:59:48.041Z,77.51
2018-06-02T08:00:48.320Z,78.77
2018-06-02T08:01:48.156Z,78.48
2018-06-02T08:02:48.786Z,77.61
2018-06-02T08:03:48.658Z,77.94
2018-06-02T08:04:48.673Z,77.50
2018-06-02T08:05:48.782Z,75.85
2018-06-02T08:06:48.783Z,76.43
2018-06-02T08:07:49.009Z,75.24
2018-06-02T08:08:49.013Z,76.53
2018-06-02T08:09:49.111Z,75.67
2018-06-02T08:10:49.234Z,76.30
2018-06-02T08:11:49.674Z,77.07
2018-06-02T08:12:49.413Z,77.07
2018-06-02T08:13:49.623Z,75.62
2018-06-02T08:14:49.692Z,75.67
2018-06-02T08:15:49.748Z,75.57
2018-06-02T08:16:50.240Z,73.73
2018-06-02T08:17:49.885Z,73.83
2018-06-02T08:18:49.965Z,73.48
2018-06-02T08:19:50.085Z,72.90
2018-06-02T08:20:50.358Z,71.84
2018-06-02T08:21:50.357Z,72.06
2018-06-02T08:22:50.464Z,71.68
2018-06-02T08:23:50.650Z,71.33
2018-06-02T08:24:50.816Z,71.33
2018-06-02T08:25:51.333Z,69.40
2018-06-02T08:26:51.222Z,69.01
2018-06-02T08:27:51.652Z,69.30
2018-06-02T08:28:51.148Z,70.07
2018-06-02T08:29:51.814Z,69.49
2018-06-02T08:30:51.371Z,67.85
2018-06-02T08:31:51.827Z,67.36
2018-06-02T08:32:51.674Z,68.04
2018-06-02T08:33:51.691Z,68.04
2018-06-02T08:34:51.794Z,68.04
2018-06-02T08:35:51.901Z,68.82
2018-06-02T08:36:52.009Z,69.01
2018-06-02T08:37:52.106Z,69.40
2018-06-02T08:38:52.240Z,69.01
2018-06-02T08:39:52.301Z,68.72
2018-06-02T08:40:52.779Z,69.20
2018-06-02T08:41:52.530Z,68.75
2018-06-02T08:42:52.860Z,68.95
2018-06-02T08:43:52.732Z,68.46
2018-06-02T08:44:52.838Z,68.04
2018-06-02T08:45:52.978Z,68.04
2018-06-02T08:46:53.056Z,68.52
2018-06-02T08:47:53.561Z,68.24
2018-06-02T08:48:53.321Z,69.20
2018-06-02T08:49:53.487Z,69.65
2018-06-02T08:50:53.454Z,70.04
2018-06-02T08:51:53.591Z,70.23
2018-06-02T08:52:54.105Z,70.23
2018-06-02T08:53:53.769Z,70.23
2018-06-02T08:54:53.877Z,70.32
2018-06-02T08:55:54.012Z,69.81
2018-06-02T08:56:54.129Z,70.20
2018-06-02T08:57:54.233Z,70.39
2018-06-02T08:58:54.523Z,70.81
2018-06-02T08:59:54.508Z,70.14
2018-06-02T09:00:54.686Z,69.36
2018-06-02T09:01:54.662Z,69.78
2018-06-02T09:02:54.803Z,69.20
2018-06-02T09:03:55.037Z,69.59
2018-06-02T09:04:55.000Z,70.46
2018-06-02T09:05:55.150Z,67.08
2018-06-02T09:06:55.161Z,67.91
2018-06-02T09:07:55.264Z,68.98
2018-06-02T09:08:55.355Z,69.30
2018-06-02T09:09:55.457Z,68.62
2018-06-02T09:10:55.566Z,67.94
2018-06-02T09:11:56.037Z,67.11
2018-06-02T09:12:55.767Z,67.40
2018-06-02T09:13:55.873Z,67.24
2018-06-02T09:14:56.040Z,64.72
2018-06-02T09:15:56.028Z,65.08
2018-06-02T09:16:56.130Z,65.92
2018-06-02T09:17:56.243Z,67.43
2018-06-02T09:18:56.344Z,67.91
2018-06-02T09:19:56.450Z,68.14
2018-06-02T09:20:56.555Z,68.33
2018-06-02T09:21:56.659Z,68.82
2018-06-02T09:22:56.784Z,69.01
2018-06-02T09:23:56.885Z,69.10
2018-06-02T09:24:56.988Z,68.33
2018-06-02T09:25:57.305Z,67.49
2018-06-02T09:26:57.253Z,66.50
2018-06-02T09:27:57.410Z,66.50
2018-06-02T09:28:57.534Z,67.17
2018-06-02T09:29:57.526Z,67.75
2018-06-02T09:30:57.620Z,66.85
2018-06-02T09:31:57.711Z,67.33
2018-06-02T09:32:57.831Z,67.43
2018-06-02T09:33:57.942Z,67.62
2018-06-02T09:34:58.070Z,67.33
2018-06-02T09:35:58.165Z,67.75
2018-06-02T09:36:58.285Z,67.36
2018-06-02T09:37:58.419Z,66.59
2018-06-02T09:38:58.536Z,66.69
2018-06-02T09:39:58.723Z,66.24
2018-06-02T09:40:58.739Z,66.63
2018-06-02T09:41:58.858Z,66.08
2018-06-02T09:42:58.970Z,65.20
2018-06-02T09:43:59.073Z,64.24
2018-06-02T09:44:59.180Z,64.04
2018-06-02T09:45:59.276Z,63.46
2018-06-02T09:46:59.423Z,63.46
2018-06-02T09:47:59.541Z,63.01
2018-06-02T09:48:59.666Z,62.11
2018-06-02T09:49:59.777Z,62.98
2018-06-02T09:50:59.903Z,63.53
2018-06-02T09:52:00.001Z,63.92
2018-06-02T09:53:00.118Z,64.04
2018-06-02T09:54:00.210Z,63.76
2018-06-02T09:55:00.313Z,63.66
2018-06-02T09:56:00.423Z,63.66
2018-06-02T09:57:00.528Z,62.98
2018-06-02T09:58:00.616Z,62.69
2018-06-02T09:59:00.730Z,62.69
2018-06-02T10:00:00.829Z,62.21
2018-06-02T10:01:00.948Z,62.53
2018-06-02T10:02:01.054Z,61.27
2018-06-02T10:03:01.191Z,61.18
2018-06-02T10:04:01.297Z,61.21
2018-06-02T10:05:01.394Z,60.72
2018-06-02T10:06:01.527Z,59.75
2018-06-02T10:07:01.656Z,59.75
2018-06-02T10:08:01.744Z,59.66
2018-06-02T10:09:01.870Z,59.75
2018-06-02T10:10:01.973Z,60.24
2018-06-02T10:11:02.080Z,61.11
2018-06-02T10:12:02.188Z,61.11
2018-06-02T10:13:02.293Z,59.94
2018-06-02T10:14:02.398Z,60.14
2018-06-02T10:15:02.507Z,60.33
2018-06-02T10:16:02.607Z,59.94
2018-06-02T10:17:02.724Z,60.52
2018-06-02T10:18:02.824Z,60.72
2018-06-02T10:19:02.915Z,60.52
2018-06-02T10:20:03.029Z,60.82
2018-06-02T10:21:03.139Z,61.01
2018-06-02T10:22:03.249Z,61.30
2018-06-02T10:23:03.345Z,62.20
2018-06-02T10:24:03.458Z,61.88
2018-06-02T10:25:03.562Z,62.40
2018-06-02T10:26:03.662Z,61.30
2018-06-02T10:27:03.766Z,61.14
2018-06-02T10:28:03.894Z,60.72
2018-06-02T10:29:03.991Z,60.72
2018-06-02T10:30:04.093Z,61.21
2018-06-02T10:31:04.212Z,61.98
2018-06-02T10:32:05.092Z,62.46
2018-06-02T10:33:04.459Z,62.85
2018-06-02T10:34:04.578Z,62.85
2018-06-02T10:35:04.671Z,62.46
2018-06-02T10:36:04.801Z,62.10
2018-06-02T10:37:04.911Z,61.91
2018-06-02T10:38:05.020Z,61.72
2018-06-02T10:39:05.118Z,62.01
2018-06-02T10:40:05.217Z,62.49
2018-06-02T10:41:05.324Z,61.17
2018-06-02T10:42:05.446Z,60.49
2018-06-02T10:43:05.550Z,61.26
2018-06-02T10:44:05.716Z,61.36
2018-06-02T10:45:05.808Z,61.04
2018-06-02T10:46:05.911Z,61.91
2018-06-02T10:47:06.051Z,61.52
2018-06-02T10:48:06.156Z,60.17
2018-06-02T10:49:06.271Z,60.39
2018-06-02T10:50:06.380Z,60.20
2018-06-02T10:51:06.474Z,60.30
2018-06-02T10:52:06.578Z,59.91
2018-06-02T10:53:06.685Z,60.20
2018-06-02T10:54:06.804Z,59.49
2018-06-02T10:55:07.167Z,58.91
2018-06-02T10:56:06.958Z,59.69
2018-06-02T10:57:07.049Z,59.97
2018-06-02T10:58:07.155Z,60.10
2018-06-02T10:59:07.259Z,60.00
2018-06-02T11:00:07.369Z,59.91
2018-06-02T11:01:07.475Z,59.71
2018-06-02T11:02:07.578Z,60.30
2018-06-02T11:03:07.693Z,60.88
2018-06-02T11:04:07.784Z,59.61
2018-06-02T11:05:07.894Z,58.77
2018-06-02T11:06:08.001Z,57.61
2018-06-02T11:07:08.100Z,58.39
2018-06-02T11:08:08.202Z,58.67
2018-06-02T11:09:08.366Z,59.06
2018-06-02T11:10:08.437Z,58.87
2018-06-02T11:11:08.550Z,59.03
2018-06-02T11:12:08.696Z,59.33
2018-06-02T11:13:08.799Z,60.36
2018-06-02T11:14:08.906Z,60.17
2018-06-02T11:15:09.013Z,61.24
2018-06-02T11:16:09.119Z,61.04
2018-06-02T11:17:10.087Z,61.33
2018-06-02T11:18:09.328Z,61.33
2018-06-02T11:19:10.090Z,62.30
2018-06-02T11:20:10.942Z,62.88
2018-06-02T11:21:10.215Z,62.95
2018-06-02T11:22:09.876Z,62.63
2018-06-02T11:23:09.974Z,64.34
2018-06-02T11:24:10.072Z,65.59
2018-06-02T11:25:10.344Z,65.27
2018-06-02T11:26:10.313Z,66.82
2018-06-02T11:27:10.425Z,66.24
2018-06-02T11:28:10.603Z,66.47
2018-06-02T11:29:10.618Z,65.24
2018-06-02T11:30:10.642Z,64.75
2018-06-02T11:31:10.968Z,64.07
2018-06-02T11:32:10.882Z,63.49
2018-06-02T11:33:11.022Z,62.27
2018-06-02T11:34:11.276Z,61.79
2018-06-02T11:35:11.089Z,61.04
2018-06-02T11:36:11.180Z,61.14
2018-06-02T11:37:11.249Z,60.55
2018-06-02T11:38:11.480Z,59.97
2018-06-02T11:39:11.469Z,59.97
2018-06-02T11:40:11.604Z,60.17
2018-06-02T11:41:11.721Z,59.97
2018-06-02T11:42:12.738Z,59.88
2018-06-02T11:43:11.954Z,60.36
2018-06-02T11:44:12.237Z,60.10
2018-06-02T11:45:12.214Z,60.30
2018-06-02T11:46:12.465Z,59.52
2018-06-02T11:47:12.505Z,59.23
2018-06-02T11:48:12.601Z,58.84
2018-06-02T11:49:12.769Z,58.74
2018-06-02T11:50:12.864Z,59.23
2018-06-02T11:51:13.153Z,59.30
2018-06-02T11:52:13.325Z,59.39
2018-06-02T11:53:13.235Z,60.07
2018-06-02T11:54:13.375Z,59.88
2018-06-02T11:55:13.503Z,59.88
2018-06-02T11:56:13.614Z,60.10
2018-06-02T11:57:13.739Z,60.07
2018-06-02T11:58:13.883Z,59.69
2018-06-02T11:59:13.989Z,60.07
2018-06-02T12:00:14.081Z,60.75
2018-06-02T12:01:14.195Z,61.43
2018-06-02T12:02:14.311Z,60.72
2018-06-02T12:03:14.463Z,61.52
2018-06-02T12:04:14.513Z,61.24
2018-06-02T12:05:14.614Z,61.72
2018-06-02T12:06:15.230Z,62.10
2018-06-02T12:07:14.757Z,61.82
2018-06-02T12:08:14.866Z,61.69
2018-06-02T12:09:15.001Z,61.88
2018-06-02T12:10:15.261Z,62.46
2018-06-02T12:11:15.430Z,62.66
2018-06-02T12:12:15.428Z,63.62
2018-06-02T12:13:15.603Z,63.31
2018-06-02T12:14:15.633Z,63.59
2018-06-02T12:15:15.772Z,63.69
2018-06-02T12:16:15.867Z,64.72
2018-06-02T12:17:16.080Z,66.88
2018-06-02T12:18:16.316Z,67.91
2018-06-02T12:19:16.201Z,67.82
2018-06-02T12:20:16.314Z,68.40
2018-06-02T12:21:16.463Z,69.27
2018-06-02T12:22:16.690Z,66.85
2018-06-02T12:23:16.908Z,68.01
2018-06-02T12:24:16.765Z,68.59
2018-06-02T12:25:16.901Z,67.98
2018-06-02T12:26:17.010Z,68.66
2018-06-02T12:27:17.134Z,67.88
2018-06-02T12:28:17.288Z,68.21
2018-06-02T12:29:17.380Z,68.30
2018-06-02T12:30:18.911Z,68.88
2018-06-02T12:31:17.687Z,69.66
2018-06-02T12:32:17.660Z,70.30
2018-06-02T12:33:17.777Z,69.95
2018-06-02T12:34:17.877Z,70.68
2018-06-02T12:35:17.990Z,70.68
2018-06-02T12:36:18.149Z,70.88
2018-06-02T12:37:18.249Z,70.88
2018-06-02T12:38:18.357Z,71.26
2018-06-02T12:39:18.449Z,71.36
2018-06-02T12:40:18.567Z,70.88
2018-06-02T12:41:18.687Z,70.30
2018-06-02T12:42:18.860Z,70.10
2018-06-02T12:43:18.970Z,70.62
2018-06-02T12:44:19.076Z,71.94
2018-06-02T12:45:19.443Z,70.72
2018-06-02T12:46:19.334Z,70.92
2018-06-02T12:47:19.506Z,70.30
2018-06-02T12:48:19.615Z,70.04
2018-06-02T12:49:19.596Z,70.72
2018-06-02T12:50:19.740Z,71.20
2018-06-02T12:51:19.879Z,70.34
2018-06-02T12:52:20.018Z,69.85
2018-06-02T12:53:20.195Z,69.75
2018-06-02T12:54:20.278Z,70.34